createdAt,value
2019-02-06T00:05:20.583Z,10.40
2019-02-06T00:08:02.368Z,10.10
2019-02-06T00:10:44.240Z,9.33
2019-02-06T00:13:26.392Z,9.60
2019-02-06T00:16:08.165Z,9.43
2019-02-06T00:18:50.413Z,10.10
2019-02-06T00:21:32.280Z,8.50
2019-02-06T00:24:14.086Z,8.93
2019-02-06T00:26:57.104Z,9.50
2019-02-06T00:29:38.909Z,8.27
2019-02-06T00:32:21.103Z,8.77
2019-02-06T00:35:03.372Z,8.70
2019-02-06T00:37:33.868Z,8.20
2019-02-06T00:40:07.718Z,8.90
2019-02-06T00:42:41.384Z,8.90
2019-02-06T00:45:18.318Z,8.27
2019-02-06T00:47:49.053Z,9.07
2019-02-06T00:50:22.483Z,8.77
2019-02-06T00:52:53.817Z,8.27
2019-02-06T00:55:28.999Z,8.37
2019-02-06T00:58:02.868Z,9.00
2019-02-06T01:00:36.634Z,8.67
2019-02-06T01:03:11.132Z,8.00
2019-02-06T01:05:46.438Z,8.33
2019-02-06T01:08:19.183Z,7.50
2019-02-06T01:10:52.702Z,8.30
2019-02-06T01:13:23.963Z,7.93
2019-02-06T01:16:00.091Z,8.10
2019-02-06T01:18:49.255Z,8.07
2019-02-06T01:21:44.024Z,8.67
2019-02-06T01:24:25.963Z,9.23
2019-02-06T01:27:08.188Z,8.50
2019-02-06T01:29:50.218Z,8.40
2019-02-06T01:32:32.803Z,8.80
2019-02-06T01:35:14.918Z,9.00
2019-02-06T01:37:56.814Z,8.30
2019-02-06T01:40:38.712Z,8.97
2019-02-06T01:43:21.463Z,8.57
2019-02-06T01:46:03.213Z,9.00
2019-02-06T01:48:44.678Z,8.80
2019-02-06T01:51:26.345Z,8.43
2019-02-06T01:54:08.679Z,8.57
2019-02-06T01:56:50.468Z,9.00
2019-02-06T01:59:20.592Z,8.80
2019-02-06T02:01:51.016Z,9.87
2019-02-06T02:04:21.070Z,8.97
2019-02-06T02:06:51.218Z,9.50
2019-02-06T02:09:21.433Z,8.80
2019-02-06T02:11:51.651Z,9.10
2019-02-06T02:14:21.926Z,8.93
2019-02-06T02:19:50.644Z,8.40
2019-02-06T02:22:39.928Z,9.70
2019-02-06T02:25:28.093Z,9.37
2019-02-06T02:27:58.258Z,8.67
2019-02-06T02:30:55.958Z,9.70
2019-02-06T02:33:29.663Z,9.40
2019-02-06T02:35:59.832Z,9.37
2019-02-06T02:38:29.922Z,9.77
2019-02-06T02:41:00.040Z,9.03
2019-02-06T02:43:30.284Z,9.80
2019-02-06T02:46:00.442Z,9.63
2019-02-06T02:48:30.529Z,9.57
2019-02-06T02:51:00.700Z,9.77
2019-02-06T02:53:31.274Z,9.37
2019-02-06T02:56:01.365Z,10.10
2019-02-06T02:58:31.525Z,9.67
2019-02-06T03:01:29.465Z,9.57
2019-02-06T03:04:03.446Z,9.57
2019-02-06T03:06:33.903Z,9.57
2019-02-06T03:09:05.542Z,9.13
2019-02-06T03:11:35.756Z,9.73
2019-02-06T03:14:05.883Z,9.67
2019-02-06T03:16:36.982Z,9.93
2019-02-06T03:19:10.496Z,9.33
2019-02-06T03:21:40.512Z,9.50
2019-02-06T03:24:10.598Z,9.20
2019-02-06T03:26:41.048Z,9.47
2019-02-06T03:29:11.528Z,8.90
2019-02-06T03:31:41.651Z,9.07
2019-02-06T03:34:11.721Z,8.80
2019-02-06T03:36:41.881Z,9.20
2019-02-06T03:39:11.943Z,8.53
2019-02-06T03:41:41.949Z,9.60
2019-02-06T03:44:12.335Z,8.47
2019-02-06T03:46:42.353Z,9.37
2019-02-06T03:49:12.492Z,9.63
2019-02-06T03:51:43.254Z,9.17
2019-02-06T03:54:13.383Z,9.43
2019-02-06T03:56:43.466Z,8.67
2019-02-06T03:59:13.490Z,8.60
2019-02-06T04:01:43.560Z,9.67
2019-02-06T04:04:13.751Z,8.63
2019-02-06T04:06:53.633Z,9.37
2019-02-06T04:09:15.659Z,9.03
2019-02-06T04:11:46.550Z,9.40
2019-02-06T04:14:16.709Z,9.57
2019-02-06T04:16:46.832Z,9.13
2019-02-06T04:19:16.867Z,9.47
2019-02-06T04:21:47.069Z,9.60
2019-02-06T04:24:17.232Z,8.77
2019-02-06T04:26:47.469Z,9.83
2019-02-06T04:29:17.639Z,9.33
2019-02-06T04:31:47.830Z,9.53
2019-02-06T04:34:18.142Z,9.13
2019-02-06T04:36:48.251Z,9.20
2019-02-06T04:39:18.310Z,8.90
2019-02-06T04:41:48.557Z,9.23
2019-02-06T04:44:18.621Z,9.60
2019-02-06T04:47:02.420Z,9.23
2019-02-06T04:49:44.323Z,9.03
2019-02-06T04:52:26.446Z,9.63
2019-02-06T04:55:09.464Z,9.50
2019-02-06T04:57:51.463Z,9.80
2019-02-06T05:00:33.078Z,9.50
2019-02-06T05:03:15.029Z,10.43
2019-02-06T05:05:57.062Z,10.40
2019-02-06T05:08:39.073Z,10.17
2019-02-06T05:11:20.866Z,9.63
2019-02-06T05:14:02.430Z,10.50
2019-02-06T05:16:44.565Z,10.20
2019-02-06T05:19:26.674Z,10.53
2019-02-06T05:22:08.604Z,10.27
2019-02-06T05:24:50.532Z,10.20
2019-02-06T05:27:32.491Z,10.40
2019-02-06T05:30:14.707Z,11.53
2019-02-06T05:32:56.472Z,11.13
2019-02-06T05:35:38.763Z,11.47
2019-02-06T05:38:20.530Z,10.57
2019-02-06T05:41:02.361Z,11.30
2019-02-06T05:43:44.171Z,11.17
2019-02-06T05:46:26.584Z,11.73
2019-02-06T05:49:09.223Z,10.50
2019-02-06T05:51:51.265Z,11.97
2019-02-06T05:54:32.934Z,11.57
2019-02-06T05:57:14.601Z,11.60
2019-02-06T05:59:57.569Z,11.23
2019-02-06T06:02:39.545Z,11.33
2019-02-06T06:05:23.139Z,12.10
2019-02-06T06:08:05.440Z,12.27
2019-02-06T06:10:47.252Z,12.20
2019-02-06T06:13:29.414Z,12.27
2019-02-06T06:16:12.614Z,12.60
2019-02-06T06:18:54.286Z,11.30
2019-02-06T06:21:36.539Z,12.10
2019-02-06T06:24:18.298Z,11.73
2019-02-06T06:27:01.234Z,11.67
2019-02-06T06:29:43.213Z,11.93
2019-02-06T06:32:24.864Z,11.83
2019-02-06T06:35:07.478Z,11.80
2019-02-06T06:37:59.487Z,11.60
2019-02-06T06:40:34.447Z,11.60
2019-02-06T06:43:16.652Z,11.73
2019-02-06T06:45:58.219Z,10.77
2019-02-06T06:48:40.116Z,12.10
2019-02-06T06:51:21.988Z,11.47
2019-02-06T06:54:03.892Z,11.70
2019-02-06T06:56:45.803Z,11.73
2019-02-06T06:59:29.179Z,12.33
2019-02-06T07:02:10.961Z,12.17
2019-02-06T07:04:53.031Z,11.73
2019-02-06T07:07:34.463Z,11.50
2019-02-06T07:10:16.344Z,11.17
2019-02-06T07:12:58.124Z,11.63
2019-02-06T07:15:40.402Z,12.40
2019-02-06T07:18:22.649Z,11.57
2019-02-06T07:21:04.496Z,11.50
2019-02-06T07:23:46.575Z,11.63
2019-02-06T07:26:28.611Z,11.57
2019-02-06T07:29:10.554Z,11.97
2019-02-06T07:31:56.965Z,11.97
2019-02-06T07:34:41.920Z,12.70
2019-02-06T07:37:15.144Z,13.10
2019-02-06T07:39:45.732Z,12.50
2019-02-06T07:42:20.654Z,11.70
2019-02-06T07:44:57.890Z,12.10
2019-02-06T07:47:32.249Z,11.80
2019-02-06T07:50:14.407Z,11.97
2019-02-06T07:52:50.703Z,12.17
2019-02-06T07:55:29.247Z,12.53
2019-02-06T07:58:07.855Z,11.80
2019-02-06T08:00:53.388Z,11.33
2019-02-06T08:03:28.407Z,11.83
2019-02-06T08:06:06.404Z,10.97
2019-02-06T08:08:47.411Z,10.97
2019-02-06T08:11:38.508Z,11.50
2019-02-06T08:14:38.869Z,10.83
2019-02-06T08:17:38.805Z,13.28
2019-02-06T08:21:07.828Z,12.73
2019-02-06T08:24:10.038Z,11.23
2019-02-06T08:27:07.509Z,12.67
2019-02-06T08:30:13.242Z,12.00
2019-02-06T08:32:55.136Z,10.60
2019-02-06T08:35:43.949Z,10.90
2019-02-06T08:38:26.252Z,11.07
2019-02-06T08:41:44.854Z,10.57
2019-02-06T08:48:03.838Z,10.37
2019-02-06T08:51:03.450Z,11.03
2019-02-06T08:54:20.542Z,11.10
2019-02-06T09:00:21.888Z,11.33
2019-02-06T09:03:07.144Z,11.17
2019-02-06T09:05:56.142Z,10.77
2019-02-06T09:08:58.943Z,10.80
2019-02-06T09:11:26.525Z,11.07
2019-02-06T09:14:21.790Z,11.03
2019-02-06T09:17:08.128Z,10.23
2019-02-06T09:19:35.031Z,10.20
2019-02-06T09:22:05.122Z,10.87
2019-02-06T09:24:35.233Z,10.80
2019-02-06T09:27:05.595Z,9.53
2019-02-06T09:29:37.597Z,9.93
2019-02-06T09:32:26.783Z,9.57
2019-02-06T09:35:08.475Z,9.87
2019-02-06T09:37:51.291Z,9.83
2019-02-06T09:40:33.248Z,10.27
2019-02-06T09:43:03.551Z,9.27
2019-02-06T09:45:33.769Z,9.43
2019-02-06T09:48:04.519Z,8.90
2019-02-06T09:50:36.801Z,9.00
2019-02-06T09:53:06.960Z,8.80
2019-02-06T09:55:37.117Z,9.00
2019-02-06T09:58:07.511Z,8.00
2019-02-06T10:00:39.641Z,8.13
2019-02-06T10:03:09.823Z,8.27
2019-02-06T10:05:40.001Z,7.77
2019-02-06T10:08:10.161Z,8.20
2019-02-06T10:10:40.361Z,8.03
2019-02-06T10:13:10.505Z,7.50
2019-02-06T10:15:40.683Z,7.97
2019-02-06T10:18:10.865Z,7.87
2019-02-06T10:20:47.265Z,8.07
2019-02-06T10:23:18.278Z,8.67
2019-02-06T10:25:48.407Z,7.40
2019-02-06T10:28:20.183Z,7.33
2019-02-06T10:30:51.344Z,8.17
2019-02-06T10:33:21.936Z,7.63
2019-02-06T10:35:52.585Z,7.40
2019-02-06T10:38:23.057Z,7.40
2019-02-06T10:40:53.382Z,8.03
2019-02-06T10:43:31.659Z,7.33
2019-02-06T10:45:55.884Z,9.60
2019-02-06T10:48:26.261Z,10.00
2019-02-06T10:50:58.462Z,8.40
2019-02-06T10:53:28.839Z,6.70
2019-02-06T10:55:59.529Z,6.83
2019-02-06T10:58:34.639Z,6.83
2019-02-06T11:01:05.689Z,6.90
2019-02-06T11:03:36.037Z,7.17
2019-02-06T11:06:06.402Z,6.23
2019-02-06T11:08:36.411Z,6.40
2019-02-06T11:11:06.548Z,6.20
2019-02-06T11:13:36.937Z,6.27
2019-02-06T11:16:07.353Z,7.17
2019-02-06T11:18:37.546Z,6.70
2019-02-06T11:21:07.671Z,6.50
2019-02-06T11:23:38.156Z,6.50
2019-02-06T11:26:08.405Z,6.20
2019-02-06T11:28:38.564Z,6.57
2019-02-06T11:31:08.779Z,6.57
2019-02-06T11:33:38.932Z,6.03
2019-02-06T11:36:09.066Z,5.80
2019-02-06T11:38:39.865Z,5.47
2019-02-06T11:41:09.977Z,5.80
2019-02-06T11:43:40.016Z,5.93
2019-02-06T11:46:10.074Z,6.57
2019-02-06T11:48:43.492Z,7.93
2019-02-06T11:51:14.001Z,7.20
2019-02-06T11:53:44.156Z,6.90
2019-02-06T11:56:14.271Z,6.37
2019-02-06T11:58:44.296Z,5.80
2019-02-06T12:01:19.353Z,5.63
2019-02-06T12:03:49.439Z,5.30
2019-02-06T12:06:19.518Z,5.30
2019-02-06T12:08:49.564Z,5.57
2019-02-06T12:11:19.657Z,6.00
2019-02-06T12:13:49.754Z,5.67
2019-02-06T12:16:20.038Z,5.70
2019-02-06T12:18:50.752Z,5.80
2019-02-06T12:21:20.882Z,5.50
2019-02-06T12:23:51.001Z,5.00
2019-02-06T12:26:21.226Z,5.47
2019-02-06T12:28:51.396Z,5.50
2019-02-06T12:31:21.861Z,5.43
2019-02-06T12:33:54.224Z,5.70
2019-02-06T12:36:24.429Z,5.60
2019-02-06T12:38:54.558Z,5.33
2019-02-06T12:41:24.731Z,5.40
2019-02-06T12:43:54.760Z,4.80
2019-02-06T12:46:24.881Z,5.10
2019-02-06T12:48:54.936Z,4.83
2019-02-06T12:51:25.344Z,4.87
2019-02-06T12:53:55.509Z,4.90
2019-02-06T12:56:25.569Z,5.17
2019-02-06T12:58:57.017Z,5.37
2019-02-06T13:01:27.224Z,5.13
2019-02-06T13:03:57.250Z,5.10
2019-02-06T13:06:27.396Z,5.03
2019-02-06T13:08:57.642Z,4.80
2019-02-06T13:11:27.893Z,4.90
2019-02-06T13:13:57.999Z,4.40
2019-02-06T13:16:29.420Z,5.03
2019-02-06T13:18:59.565Z,4.70
2019-02-06T13:21:29.606Z,4.30
2019-02-06T13:23:59.683Z,4.47
2019-02-06T13:26:29.943Z,4.47
2019-02-06T13:29:03.175Z,4.50
2019-02-06T13:31:33.293Z,4.77
2019-02-06T13:34:03.464Z,4.33
2019-02-06T13:36:33.621Z,4.50
2019-02-06T13:39:05.405Z,4.20
2019-02-06T13:41:35.437Z,4.20
2019-02-06T13:44:05.634Z,4.63
2019-02-06T13:46:35.690Z,4.40
2019-02-06T13:49:05.785Z,4.70
2019-02-06T13:51:35.919Z,4.43
2019-02-06T13:54:08.343Z,4.67
2019-02-06T13:56:38.566Z,4.20
2019-02-06T13:59:08.682Z,4.80
2019-02-06T14:01:38.880Z,4.90
2019-02-06T14:04:10.664Z,4.40
2019-02-06T14:06:40.957Z,4.90
2019-02-06T14:09:22.760Z,4.60
2019-02-06T14:11:48.382Z,4.70
2019-02-06T14:14:18.435Z,4.63
2019-02-06T14:16:48.553Z,4.60
2019-02-06T14:19:18.695Z,4.83
2019-02-06T14:21:51.557Z,4.50
2019-02-06T14:24:44.964Z,4.70
2019-02-06T14:28:02.496Z,4.57
2019-02-06T14:31:08.274Z,4.63
2019-02-06T14:33:51.239Z,4.63
2019-02-06T14:36:56.006Z,4.50
2019-02-06T14:40:16.897Z,5.00
2019-02-06T14:43:22.341Z,5.07
2019-02-06T14:46:30.714Z,4.50
2019-02-06T14:49:42.682Z,4.67
2019-02-06T14:52:48.793Z,4.60
2019-02-06T14:56:13.960Z,4.93
2019-02-06T14:59:26.488Z,4.83
2019-02-06T15:02:27.275Z,4.30
2019-02-06T15:05:30.858Z,4.27
2019-02-06T15:08:38.110Z,4.73
2019-02-06T15:11:23.348Z,4.47
2019-02-06T15:14:46.115Z,4.60
2019-02-06T15:17:40.422Z,4.90
2019-02-06T15:20:57.810Z,4.70
2019-02-06T15:24:14.103Z,4.80
2019-02-06T15:27:25.965Z,5.13
2019-02-06T15:30:27.717Z,5.30
2019-02-06T15:33:37.570Z,5.40
2019-02-06T15:36:47.884Z,5.37
2019-02-06T15:40:02.156Z,4.80
2019-02-06T15:42:59.990Z,4.87
2019-02-06T15:45:50.101Z,4.70
2019-02-06T15:49:18.917Z,5.20
2019-02-06T15:52:27.903Z,5.17
2019-02-06T15:56:12.920Z,5.83
2019-02-06T15:59:33.087Z,5.60
2019-02-06T16:02:32.608Z,5.60
2019-02-06T16:05:56.640Z,5.10
2019-02-06T16:08:59.737Z,5.80
2019-02-06T16:12:05.519Z,5.90
2019-02-06T16:15:32.305Z,5.67
2019-02-06T16:18:24.881Z,5.60
2019-02-06T16:21:25.456Z,6.50
2019-02-06T16:24:36.155Z,5.97
2019-02-06T16:27:30.533Z,5.80
2019-02-06T16:30:41.216Z,5.63
2019-02-06T16:34:16.881Z,5.20
2019-02-06T16:37:19.233Z,6.30
2019-02-06T16:40:12.795Z,6.00
2019-02-06T16:43:32.789Z,5.80
2019-02-06T16:46:38.659Z,5.60
2019-02-06T16:49:49.764Z,6.23
2019-02-06T16:53:01.070Z,6.40
2019-02-06T16:56:07.178Z,6.97
2019-02-06T16:59:09.662Z,7.00
2019-02-06T17:02:16.166Z,7.20
2019-02-06T17:05:30.960Z,8.00
2019-02-06T17:08:31.138Z,8.23
2019-02-06T17:11:18.104Z,9.27
2019-02-06T17:14:22.069Z,9.23
2019-02-06T17:17:28.842Z,9.43
2019-02-06T17:20:47.456Z,9.80
2019-02-06T17:23:57.315Z,10.70
2019-02-06T17:27:10.890Z,10.40
2019-02-06T17:30:10.993Z,10.70
2019-02-06T17:33:18.113Z,10.57
2019-02-06T17:36:08.803Z,11.10
2019-02-06T17:39:23.882Z,11.13
2019-02-06T17:42:15.408Z,10.90
2019-02-06T17:45:30.200Z,11.80
2019-02-06T17:48:26.799Z,11.57
2019-02-06T17:51:36.452Z,11.23
2019-02-06T17:54:34.407Z,10.30
2019-02-06T17:57:04.518Z,11.57
2019-02-06T17:59:34.569Z,10.67
2019-02-06T18:02:05.196Z,10.70
2019-02-06T18:04:53.243Z,12.23
2019-02-06T18:07:23.525Z,11.20
2019-02-06T18:09:53.617Z,11.10
2019-02-06T18:12:26.555Z,11.97
2019-02-06T18:14:55.721Z,11.43
2019-02-06T18:17:25.823Z,12.27
2019-02-06T18:19:55.935Z,11.63
2019-02-06T18:22:26.059Z,12.00
2019-02-06T18:24:56.240Z,12.40
2019-02-06T18:27:26.431Z,11.53
2019-02-06T18:29:56.678Z,11.37
2019-02-06T18:32:26.857Z,12.93
2019-02-06T18:34:57.016Z,11.53
2019-02-06T18:37:27.146Z,12.23
2019-02-06T18:39:57.535Z,13.03
2019-02-06T18:42:36.837Z,12.70
2019-02-06T18:44:59.539Z,12.27
2019-02-06T18:47:29.758Z,12.40
2019-02-06T18:50:00.008Z,12.40
2019-02-06T18:52:30.126Z,13.03
2019-02-06T18:55:00.313Z,13.20
2019-02-06T18:57:30.438Z,13.87
2019-02-06T19:00:00.569Z,12.97
2019-02-06T19:02:30.685Z,13.13
2019-02-06T19:05:01.187Z,13.13
2019-02-06T19:07:31.464Z,13.23
2019-02-06T19:10:01.729Z,14.40
2019-02-06T19:12:31.882Z,13.70
2019-02-06T19:15:01.987Z,13.60
2019-02-06T19:17:32.172Z,14.10
2019-02-06T19:20:02.356Z,14.40
2019-02-06T19:22:33.115Z,14.20
2019-02-06T19:25:03.534Z,14.00
2019-02-06T19:27:34.013Z,14.00
2019-02-06T19:30:05.832Z,14.73
2019-02-06T19:32:36.446Z,14.37
2019-02-06T19:35:07.801Z,14.77
2019-02-06T19:37:37.980Z,13.47
2019-02-06T19:40:09.248Z,14.90
2019-02-06T19:42:39.564Z,13.93
2019-02-06T19:45:10.058Z,14.93
2019-02-06T19:47:40.209Z,13.30
2019-02-06T19:50:17.129Z,14.03
2019-02-06T19:52:47.362Z,12.90
2019-02-06T19:55:17.526Z,14.20
2019-02-06T19:57:47.825Z,13.47
2019-02-06T20:00:20.666Z,14.50
2019-02-06T20:02:50.814Z,16.50
2019-02-06T20:05:20.946Z,16.00
2019-02-06T20:07:51.071Z,15.17
2019-02-06T20:10:23.731Z,14.83
2019-02-06T20:12:53.937Z,14.40
2019-02-06T20:15:24.036Z,14.40
2019-02-06T20:17:54.183Z,14.60
2019-02-06T20:20:24.976Z,14.20
2019-02-06T20:22:55.558Z,15.00
2019-02-06T20:25:25.765Z,14.13
2019-02-06T20:27:56.163Z,15.03
2019-02-06T20:30:27.647Z,14.60
2019-02-06T20:32:57.928Z,14.70
2019-02-06T20:35:28.037Z,14.40
2019-02-06T20:37:58.729Z,14.60
2019-02-06T20:40:31.410Z,15.63
2019-02-06T20:43:01.536Z,15.17
2019-02-06T20:45:32.308Z,15.00
2019-02-06T20:48:02.444Z,15.40
2019-02-06T20:50:33.655Z,14.27
2019-02-06T20:53:04.209Z,14.57
2019-02-06T20:55:34.326Z,15.87
2019-02-06T20:58:04.544Z,15.10
2019-02-06T21:00:36.574Z,15.93
2019-02-06T21:03:07.007Z,14.67
2019-02-06T21:05:37.115Z,15.63
2019-02-06T21:08:07.265Z,15.20
2019-02-06T21:10:37.364Z,16.40
2019-02-06T21:13:07.564Z,15.00
2019-02-06T21:15:37.739Z,16.00
2019-02-06T21:18:07.886Z,14.60
2019-02-06T21:20:37.961Z,15.90
2019-02-06T21:23:08.242Z,16.07
2019-02-06T21:25:38.387Z,15.73
2019-02-06T21:28:08.557Z,16.57
2019-02-06T21:30:39.059Z,16.57
2019-02-06T21:33:09.209Z,16.30
2019-02-06T21:35:40.059Z,16.67
2019-02-06T21:38:10.333Z,16.47
2019-02-06T21:40:40.496Z,17.27
2019-02-06T21:43:13.693Z,17.80
2019-02-06T21:45:43.824Z,16.17
2019-02-06T21:48:14.013Z,15.57
2019-02-06T21:50:44.199Z,16.10
2019-02-06T21:53:14.507Z,16.47
2019-02-06T21:55:44.675Z,15.30
2019-02-06T21:58:14.882Z,16.03
2019-02-06T22:00:45.009Z,16.60
2019-02-06T22:03:15.633Z,17.10
2019-02-06T22:05:45.742Z,17.67
2019-02-06T22:08:16.003Z,16.33
2019-02-06T22:10:46.143Z,15.73
2019-02-06T22:13:16.332Z,16.87
2019-02-06T22:15:46.360Z,16.40
2019-02-06T22:18:16.517Z,15.93
2019-02-06T22:20:46.695Z,16.23
2019-02-06T22:23:48.172Z,15.80
2019-02-06T22:30:40.508Z,15.50
2019-02-06T22:38:25.278Z,15.23
2019-02-06T22:41:38.330Z,14.73
2019-02-06T22:45:36.717Z,14.50
2019-02-06T22:57:33.828Z,14.47
2019-02-06T23:01:26.583Z,13.47
2019-02-06T23:11:05.660Z,12.73
2019-02-06T23:24:06.661Z,13.00
2019-02-06T23:26:36.714Z,12.73
2019-02-06T23:29:08.425Z,12.70
2019-02-06T23:31:38.982Z,12.20
2019-02-06T23:34:09.230Z,11.97
2019-02-06T23:36:39.484Z,10.83
2019-02-06T23:39:15.693Z,10.07
2019-02-06T23:41:45.831Z,9.57
2019-02-06T23:44:16.363Z,9.03
2019-02-06T23:46:46.527Z,8.67
2019-02-06T23:49:16.664Z,8.77
2019-02-06T23:51:46.932Z,8.73
2019-02-06T23:54:17.053Z,9.47
2019-02-06T23:56:47.306Z,8.10
2019-02-06T23:59:17.398Z,8.37
